Time;durP1;ratioP1;P1;durP2;ratioP2;P2;SDS_P1;SDS_P2;PMS_P1;PMS_P2;Temp;Humidity;BMP_temperature;BMP_pressure;BME280_temperature;BME280_humidity;BME280_pressure;Samples;Min_cycle;Max_cycle;Signal;HPM_P1;HPM_P2
2021/11/16 00:00:39;;;;;;;12.73;5.07;;;;;;;9.72;79.62;101974.16;5053521;28;20041;-79
2021/11/16 00:03:07;;;;;;;7.68;4.75;;;;;;;9.71;79.71;101956.78;5054320;28;20039;-80
2021/11/16 00:05:34;;;;;;;10.50;5.35;;;;;;;9.75;79.87;101949.47;5053497;28;20045;-80
2021/11/16 00:08:02;;;;;;;9.88;5.53;;;;;;;9.76;79.76;101944.78;5054063;28;20052;-80
2021/11/16 00:10:29;;;;;;;20.00;5.97;;;;;;;9.76;79.84;101950.31;5050972;28;21128;-80
2021/11/16 00:12:58;;;;;;;9.95;5.05;;;;;;;9.76;79.99;101944.78;5050225;28;20123;-79
2021/11/16 00:15:25;;;;;;;10.13;5.65;;;;;;;9.77;80.00;101940.84;5051446;28;20041;-79
2021/11/16 00:17:52;;;;;;;6.75;4.03;;;;;;;9.78;79.98;101940.56;5056503;28;20050;-80
2021/11/16 00:20:20;;;;;;;7.32;4.15;;;;;;;9.77;80.04;101930.63;5055512;28;20112;-80
2021/11/16 00:22:46;;;;;;;11.50;7.55;;;;;;;9.75;79.98;101932.88;5053262;28;20098;-79
2021/11/16 00:27:44;;;;;;;9.50;4.60;;;;;;;9.73;79.97;101926.03;5053607;28;20084;-79
2021/11/16 00:30:12;;;;;;;11.38;4.95;;;;;;;9.70;79.77;101933.00;5054251;28;20053;-79
2021/11/16 00:32:39;;;;;;;8.00;4.65;;;;;;;9.69;80.22;101933.28;5035502;28;20099;-79
2021/11/16 00:35:06;;;;;;;8.32;5.15;;;;;;;9.70;80.36;101940.47;5052957;28;20098;-79
2021/11/16 00:37:33;;;;;;;11.35;5.45;;;;;;;9.70;80.39;101923.88;5055079;28;20060;-80
2021/11/16 00:40:07;;;;;;;12.05;5.05;;;;;;;9.70;80.42;101924.69;5054972;28;20045;-80
2021/11/16 00:42:34;;;;;;;9.63;4.95;;;;;;;9.69;80.41;101916.69;5051943;28;20052;-80
2021/11/16 00:45:02;;;;;;;8.23;4.85;;;;;;;9.69;80.58;101916.69;5050626;28;20120;-80
2021/11/16 00:47:29;;;;;;;8.45;4.75;;;;;;;9.70;80.44;101923.88;5035240;28;20123;-79
2021/11/16 00:49:56;;;;;;;11.48;4.20;;;;;;;9.69;80.37;101913.94;5050663;28;20049;-80
2021/11/16 00:52:23;;;;;;;10.93;4.85;;;;;;;9.70;80.27;101918.34;5050306;28;20086;-80
2021/11/16 00:54:50;;;;;;;13.63;4.72;;;;;;;9.70;80.30;101904.53;5053464;28;20449;-80
2021/11/16 00:57:17;;;;;;;11.43;5.00;;;;;;;9.69;79.94;101908.41;5035287;28;20041;-80
2021/11/16 00:59:43;;;;;;;9.48;5.43;;;;;;;9.68;80.10;101898.50;5051687;28;20373;-80
2021/11/16 01:02:10;;;;;;;8.90;3.85;;;;;;;9.66;79.94;101884.16;5032484;28;20126;-79
2021/11/16 01:04:37;;;;;;;7.95;3.80;;;;;;;9.66;79.79;101875.88;5032986;28;20037;-80
2021/11/16 01:07:05;;;;;;;9.38;3.85;;;;;;;9.65;79.78;101866.75;5037943;28;20609;-79
2021/11/16 01:09:32;;;;;;;8.80;2.80;;;;;;;9.62;79.59;101866.56;5054557;28;20079;-80
2021/11/16 01:11:59;;;;;;;10.60;4.13;;;;;;;9.60;79.55;101868.81;5050812;28;21970;-79
2021/11/16 01:14:26;;;;;;;6.28;2.80;;;;;;;9.58;79.49;101871.09;5053460;28;20045;-80
2021/11/16 01:16:53;;;;;;;8.50;2.58;;;;;;;9.57;79.36;101859.19;5054684;28;20052;-80
2021/11/16 01:19:20;;;;;;;7.93;2.78;;;;;;;9.55;79.29;101861.47;5048191;28;20041;-79
2021/11/16 01:21:47;;;;;;;7.60;2.88;;;;;;;9.52;79.33;101850.19;5018296;28;20053;-80
2021/11/16 01:24:15;;;;;;;4.68;2.35;;;;;;;9.50;79.19;101861.59;5053720;28;20044;-79
2021/11/16 01:26:44;;;;;;;6.95;2.22;;;;;;;9.48;79.19;101852.75;5053710;28;20523;-79
2021/11/16 01:29:15;;;;;;;3.47;2.50;;;;;;;9.42;79.14;101844.91;5022318;28;20455;-79
2021/11/16 01:31:41;;;;;;;5.05;2.13;;;;;;;9.39;79.05;101838.06;5033433;28;20124;-80
2021/11/16 01:34:10;;;;;;;4.88;2.53;;;;;;;9.35;79.23;101841.72;5051089;28;20401;-80
2021/11/16 01:36:37;;;;;;;9.98;3.17;;;;;;;9.34;79.06;101842.88;5030025;28;20562;-80
2021/11/16 01:39:05;;;;;;;9.43;2.85;;;;;;;9.35;79.01;101841.72;5049930;28;20094;-80
2021/11/16 01:41:33;;;;;;;3.40;2.28;;;;;;;9.35;78.83;101836.19;5035825;28;20683;-79
2021/11/16 01:44:01;;;;;;;6.63;2.22;;;;;;;9.34;78.83;101837.34;5050323;28;20553;-80
2021/11/16 01:46:28;;;;;;;6.55;2.70;;;;;;;9.31;78.89;101843.50;5047877;28;20053;-80
2021/11/16 01:48:57;;;;;;;4.93;2.45;;;;;;;9.27;78.89;101836.94;5052061;28;20448;-80
2021/11/16 01:51:28;;;;;;;3.70;1.90;;;;;;;9.26;78.75;101838.06;5051221;28;20095;-80
2021/11/16 01:54:01;;;;;;;7.95;2.55;;;;;;;9.25;78.84;101841.97;5050410;28;20122;-79
2021/11/16 01:56:35;;;;;;;4.43;2.28;;;;;;;9.25;78.79;101840.03;5035434;28;20032;-79
2021/11/16 01:59:03;;;;;;;5.97;1.80;;;;;;;9.24;78.76;101832.06;5051393;28;20069;-80
2021/11/16 02:01:32;;;;;;;5.68;2.40;;;;;;;9.25;78.79;101828.97;5051387;28;20029;-79
2021/11/16 02:03:59;;;;;;;4.55;1.88;;;;;;;9.27;78.78;101836.94;5052632;28;20740;-80
2021/11/16 02:06:30;;;;;;;7.22;2.17;;;;;;;9.28;78.66;101831.13;5018370;28;20036;-79
2021/11/16 02:08:58;;;;;;;4.18;1.70;;;;;;;9.30;78.85;101830.78;5034409;28;20396;-79
2021/11/16 02:11:25;;;;;;;3.53;2.13;;;;;;;9.29;79.05;101830.00;5049833;28;20048;-80
2021/11/16 02:13:52;;;;;;;6.13;2.85;;;;;;;9.31;79.03;101826.91;5051163;28;20049;-79
2021/11/16 02:16:20;;;;;;;6.57;2.10;;;;;;;9.30;78.94;101825.25;5049184;28;20041;-79
2021/11/16 02:18:47;;;;;;;6.90;1.90;;;;;;;9.26;79.04;101825.09;5054079;28;20033;-80
2021/11/16 02:21:15;;;;;;;8.40;1.75;;;;;;;9.23;79.11;101820.19;5034185;28;20132;-79
2021/11/16 02:23:43;;;;;;;5.45;1.65;;;;;;;9.22;79.26;101824.06;5032260;28;20053;-79
2021/11/16 02:26:11;;;;;;;9.25;2.33;;;;;;;9.21;79.13;101827.97;5050580;28;20144;-79
2021/11/16 02:28:43;;;;;;;4.80;2.65;;;;;;;9.19;79.29;101817.19;5032764;28;20078;-80
2021/11/16 02:31:11;;;;;;;4.25;1.95;;;;;;;9.19;79.38;101832.97;5050435;28;20032;-80
2021/11/16 02:33:38;;;;;;;5.10;1.83;;;;;;;9.16;79.66;101820.59;5053041;28;20388;-80
2021/11/16 02:36:05;;;;;;;4.57;2.28;;;;;;;9.14;79.39;101811.78;5053585;28;20075;-79
2021/11/16 02:38:34;;;;;;;4.20;2.05;;;;;;;9.13;79.45;101814.88;5035391;28;20543;-79
2021/11/16 02:41:02;;;;;;;6.40;2.03;;;;;;;9.11;79.53;101815.16;5033991;28;20145;-79
2021/11/16 02:43:31;;;;;;;4.07;1.77;;;;;;;9.11;79.52;101814.34;5052251;28;20040;-79
2021/11/16 02:45:59;;;;;;;6.90;2.15;;;;;;;9.12;79.78;101810.47;5033346;28;20126;-79
2021/11/16 02:48:25;;;;;;;6.63;2.08;;;;;;;9.12;79.72;101803.00;5037331;28;20126;-79
2021/11/16 02:50:56;;;;;;;9.68;2.42;;;;;;;9.12;79.46;101800.25;5054909;28;20078;-80
2021/11/16 02:53:24;;;;;;;6.68;2.58;;;;;;;9.15;79.47;101807.09;5039036;28;20482;-79
2021/11/16 02:55:51;;;;;;;4.45;1.67;;;;;;;9.15;79.58;101796.03;5053335;28;20040;-79
2021/11/16 02:58:20;;;;;;;9.73;3.28;;;;;;;9.15;79.47;101796.88;5036234;28;20040;-79
2021/11/16 03:00:55;;;;;;;6.70;2.25;;;;;;;9.14;79.66;101795.22;5055273;28;20049;-80
2021/11/16 03:03:22;;;;;;;4.47;2.10;;;;;;;9.14;79.66;101781.41;5056774;28;20419;-79
2021/11/16 03:05:49;;;;;;;6.75;2.20;;;;;;;9.14;79.67;101767.59;5054386;28;20127;-80
2021/11/16 03:08:22;;;;;;;5.20;2.92;;;;;;;9.11;79.68;101762.69;5054906;28;20045;-80
2021/11/16 03:10:51;;;;;;;4.57;2.05;;;;;;;9.12;79.76;101774.56;5053392;28;20057;-80
2021/11/16 03:13:23;;;;;;;3.38;1.90;;;;;;;9.10;79.84;101765.78;5038217;28;20419;-80
2021/11/16 03:15:49;;;;;;;4.60;2.38;;;;;;;9.11;79.61;101757.16;5039354;28;20093;-80
2021/11/16 03:18:17;;;;;;;6.10;2.20;;;;;;;9.09;79.79;101742.84;5055831;28;20067;-79
2021/11/16 03:20:45;;;;;;;3.40;1.80;;;;;;;9.06;79.66;101740.69;5048689;28;20064;-79
2021/11/16 03:23:19;;;;;;;7.07;1.65;;;;;;;9.05;79.78;101744.56;5057678;28;20075;-80
2021/11/16 03:25:51;;;;;;;7.40;2.20;;;;;;;9.05;79.74;101747.34;5056867;28;20133;-80
2021/11/16 03:28:21;;;;;;;9.45;2.05;;;;;;;9.06;79.66;101737.94;5052428;28;20099;-79
2021/11/16 03:30:51;;;;;;;6.75;2.40;;;;;;;9.07;79.73;101731.28;5053741;28;20068;-79
2021/11/16 03:33:20;;;;;;;6.70;2.15;;;;;;;9.06;79.53;101726.88;5055409;28;20048;-79
2021/11/16 03:35:48;;;;;;;5.22;2.20;;;;;;;9.05;79.89;101719.72;5049558;28;20044;-80
2021/11/16 03:38:18;;;;;;;5.50;2.30;;;;;;;9.05;79.69;101722.47;5052692;28;20064;-80
2021/11/16 03:40:47;;;;;;;5.30;2.30;;;;;;;9.07;79.65;101720.25;5035955;28;20060;-80
2021/11/16 03:43:16;;;;;;;4.82;2.10;;;;;;;9.08;79.42;101724.63;5051905;28;20068;-79
2021/11/16 03:45:44;;;;;;;3.85;2.55;;;;;;;9.07;79.66;101711.97;5050623;28;20149;-79
2021/11/16 03:48:12;;;;;;;5.93;2.80;;;;;;;9.06;79.31;101703.97;5036596;28;20372;-80
2021/11/16 03:50:40;;;;;;;5.13;2.05;;;;;;;9.04;79.42;101696.00;5054197;28;20423;-79
2021/11/16 03:53:09;;;;;;;6.28;3.58;;;;;;;9.04;79.30;101696.00;5053385;28;20064;-79
2021/11/16 03:55:39;;;;;;;3.88;2.15;;;;;;;9.04;79.22;101690.47;5048770;28;20055;-79
2021/11/16 03:58:06;;;;;;;3.67;2.10;;;;;;;9.03;79.32;101683.31;5053828;28;20427;-79
2021/11/16 04:00:35;;;;;;;6.47;2.80;;;;;;;9.00;79.18;101678.41;5050678;28;20044;-79
2021/11/16 04:03:03;;;;;;;4.65;2.17;;;;;;;8.99;79.09;101676.78;5055372;28;20041;-80
2021/11/16 04:05:30;;;;;;;6.45;2.55;;;;;;;8.98;79.22;101668.81;5051132;28;20040;-79
2021/11/16 04:07:57;;;;;;;7.65;3.17;;;;;;;8.97;79.46;101668.00;5030855;28;20037;-79
2021/11/16 04:10:25;;;;;;;5.00;2.15;;;;;;;8.98;79.43;101657.75;5036161;28;20083;-79
2021/11/16 04:12:52;;;;;;;7.10;3.25;;;;;;;8.98;79.20;101655.81;5053961;28;20076;-80
2021/11/16 04:15:22;;;;;;;7.38;2.78;;;;;;;8.98;78.94;101646.69;5055383;28;20524;-79
2021/11/16 04:17:52;;;;;;;6.30;2.65;;;;;;;8.97;79.13;101645.91;5036445;28;20045;-79
2021/11/16 04:20:25;;;;;;;11.45;4.72;;;;;;;8.96;79.10;101637.94;5050727;28;20148;-80
2021/11/16 04:22:52;;;;;;;5.60;2.63;;;;;;;8.93;79.27;101649.59;5052805;28;20032;-80
2021/11/16 04:25:20;;;;;;;6.30;3.20;;;;;;;8.95;79.33;101650.91;5034355;28;20049;-80
2021/11/16 04:27:47;;;;;;;7.18;2.95;;;;;;;8.96;79.15;101638.75;5053414;28;20064;-80
2021/11/16 04:30:16;;;;;;;7.65;3.85;;;;;;;8.97;79.25;101629.34;5034322;28;20140;-79
2021/11/16 04:32:43;;;;;;;5.25;2.95;;;;;;;8.93;79.22;101639.38;5054024;28;20111;-80
2021/11/16 04:35:11;;;;;;;8.57;3.92;;;;;;;8.90;79.15;101631.69;5053056;28;20041;-79
2021/11/16 04:37:40;;;;;;;5.82;3.00;;;;;;;8.89;79.21;101627.31;5050608;28;20119;-80
2021/11/16 04:40:09;;;;;;;6.28;2.90;;;;;;;8.85;79.23;101615.25;5018476;28;20045;-79
2021/11/16 04:42:37;;;;;;;6.75;3.30;;;;;;;8.83;79.40;101616.69;5050791;28;20132;-79
2021/11/16 04:45:08;;;;;;;9.18;3.00;;;;;;;8.79;79.45;101616.50;5052793;28;20127;-79
2021/11/16 04:47:48;;;;;;;7.88;3.90;;;;;;;8.78;79.54;101614.06;5051204;28;20078;-79
2021/11/16 04:59:29;;;;;;;7.90;3.55;;;;;;;8.74;79.82;101610.28;5051164;28;20125;-79
2021/11/16 05:04:08;;;;;;;5.70;3.75;;;;;;;8.82;79.90;101615.88;5033132;28;20163;-79
2021/11/16 05:06:36;;;;;;;5.70;3.05;;;;;;;8.82;79.98;101602.06;5051635;28;20101;-79
2021/11/16 05:09:03;;;;;;;6.78;3.42;;;;;;;8.84;79.71;101604.53;5050738;28;20041;-79
2021/11/16 05:11:30;;;;;;;8.35;3.50;;;;;;;8.87;79.72;101595.63;5051854;28;20539;-79
2021/11/16 05:13:57;;;;;;;9.98;3.92;;;;;;;8.88;79.61;101603.59;5051802;28;20053;-80
2021/11/16 05:16:25;;;;;;;8.82;3.83;;;;;;;8.91;79.69;101596.63;5050367;28;20196;-80
2021/11/16 05:18:53;;;;;;;7.35;2.97;;;;;;;8.92;79.53;101596.31;5034416;28;20040;-80
2021/11/16 05:21:20;;;;;;;7.40;3.10;;;;;;;8.96;79.81;101600.09;5050074;28;20135;-79
2021/11/16 05:23:56;;;;;;;5.72;3.00;;;;;;;8.94;79.31;101594.06;5051003;28;20060;-80
2021/11/16 05:26:26;;;;;;;5.72;3.63;;;;;;;8.97;80.18;101592.63;5036303;28;20040;-79
2021/11/16 05:28:54;;;;;;;5.75;3.47;;;;;;;8.96;79.67;101588.22;5050137;28;20428;-80
2021/11/16 05:31:22;;;;;;;10.15;3.75;;;;;;;8.98;79.41;101585.94;5050616;28;20037;-80
2021/11/16 05:33:50;;;;;;;7.00;3.55;;;;;;;8.98;79.36;101581.25;5048816;28;20037;-79
2021/11/16 05:36:18;;;;;;;4.63;3.03;;;;;;;8.99;78.73;101579.31;5049679;28;20036;-79
2021/11/16 05:38:49;;;;;;;6.05;2.90;;;;;;;9.00;79.13;101573.44;5032432;28;22148;-79
2021/11/16 05:41:17;;;;;;;7.25;2.83;;;;;;;9.02;79.06;101560.16;5035912;28;20381;-79
2021/11/16 05:43:45;;;;;;;5.15;3.42;;;;;;;9.04;78.83;101552.38;5053347;28;20121;-79
2021/11/16 05:46:22;;;;;;;7.88;3.28;;;;;;;9.04;78.94;101552.38;5052939;28;20099;-79
2021/11/16 05:48:51;;;;;;;8.43;2.50;;;;;;;9.01;78.72;101544.72;5033719;28;20193;-79
2021/11/16 05:51:20;;;;;;;6.30;3.00;;;;;;;8.98;78.70;101534.28;5049627;28;20045;-79
2021/11/16 05:53:52;;;;;;;8.45;3.33;;;;;;;8.95;78.59;101540.44;5034208;28;20037;-79
2021/11/16 05:56:22;;;;;;;5.25;2.42;;;;;;;8.91;78.85;101531.16;5032116;28;20043;-79
2021/11/16 05:58:53;;;;;;;6.00;2.60;;;;;;;8.87;78.64;101535.69;5052273;28;20091;-79
2021/11/16 06:01:22;;;;;;;8.93;3.33;;;;;;;8.86;78.74;101536.00;5048829;28;20039;-80
2021/11/16 06:03:53;;;;;;;3.92;2.90;;;;;;;8.86;78.75;101523.03;5031455;28;20079;-79
2021/11/16 06:06:30;;;;;;;4.07;2.28;;;;;;;8.84;78.55;101530.78;5031642;28;20110;-79
2021/11/16 06:09:02;;;;;;;4.75;2.15;;;;;;;8.83;78.78;101529.16;5048317;28;20045;-80
2021/11/16 06:11:30;;;;;;;4.72;2.13;;;;;;;8.84;78.69;101524.47;5032128;28;20160;-80
2021/11/16 06:13:58;;;;;;;7.15;1.88;;;;;;;8.84;78.68;101530.78;5052011;28;20079;-80
2021/11/16 06:16:26;;;;;;;2.75;1.83;;;;;;;8.86;78.31;101525.78;5037141;28;20029;-80
2021/11/16 06:18:56;;;;;;;3.72;2.15;;;;;;;8.85;78.45;101526.91;5051206;28;20180;-79
2021/11/16 06:21:23;;;;;;;6.43;1.67;;;;;;;8.87;78.32;101526.59;5038312;28;20435;-80
2021/11/16 06:23:50;;;;;;;2.53;1.42;;;;;;;8.91;78.25;101527.59;5056565;28;20032;-80
2021/11/16 06:26:17;;;;;;;5.78;2.47;;;;;;;8.93;78.14;101519.78;5036624;28;20082;-80
2021/11/16 06:28:44;;;;;;;2.72;1.65;;;;;;;8.97;78.17;101520.81;5055195;28;20110;-79
2021/11/16 06:31:11;;;;;;;5.45;2.10;;;;;;;8.99;78.13;101522.13;5054174;28;20724;-79
2021/11/16 06:33:38;;;;;;;5.07;2.47;;;;;;;9.01;78.07;101521.78;5039505;28;20061;-79
2021/11/16 06:36:05;;;;;;;3.83;1.50;;;;;;;9.05;78.20;101522.81;5057054;28;20064;-80
2021/11/16 06:38:32;;;;;;;2.13;1.48;;;;;;;9.06;77.99;101521.66;5052111;28;20040;-80
2021/11/16 06:40:59;;;;;;;5.30;1.80;;;;;;;9.08;78.21;101531.25;5054647;28;20539;-79
2021/11/16 06:43:30;;;;;;;4.55;1.95;;;;;;;9.11;78.06;101525.09;5033095;28;20123;-79
2021/11/16 06:46:00;;;;;;;2.85;1.60;;;;;;;9.14;78.00;101518.97;5056773;28;20088;-80
2021/11/16 06:48:29;;;;;;;2.83;1.58;;;;;;;9.16;77.96;101516.69;5051937;28;20040;-80
2021/11/16 06:50:57;;;;;;;3.58;1.83;;;;;;;9.17;77.85;101506.47;5054036;28;20041;-80
2021/11/16 06:53:30;;;;;;;4.88;1.90;;;;;;;9.18;77.76;101508.09;5055915;28;20045;-80
2021/11/16 06:55:58;;;;;;;3.90;2.03;;;;;;;9.19;77.75;101498.66;5036293;28;20032;-80
2021/11/16 06:58:26;;;;;;;5.93;1.73;;;;;;;9.17;77.78;101495.41;5055366;28;20053;-80
2021/11/16 07:00:55;;;;;;;15.10;3.38;;;;;;;9.16;77.86;101494.59;5033005;28;20072;-79
2021/11/16 07:03:25;;;;;;;8.35;2.83;;;;;;;9.13;77.83;101489.69;5055360;28;20583;-79
2021/11/16 07:05:56;;;;;;;3.20;1.95;;;;;;;9.11;77.99;101486.44;5037577;28;20408;-80
2021/11/16 07:08:30;;;;;;;4.97;1.90;;;;;;;9.11;77.75;101488.38;5053375;28;20067;-79
2021/11/16 07:11:05;;;;;;;5.95;2.10;;;;;;;9.11;77.61;101491.97;5053512;28;20427;-80
2021/11/16 07:13:32;;;;;;;6.65;2.25;;;;;;;9.12;77.51;101485.31;5052986;28;20039;-80
2021/11/16 07:15:59;;;;;;;5.45;2.08;;;;;;;9.13;77.72;101481.41;5053855;28;20124;-79
2021/11/16 07:18:27;;;;;;;5.85;2.17;;;;;;;9.16;77.69;101475.25;5054591;28;20037;-80
2021/11/16 07:21:00;;;;;;;5.65;2.70;;;;;;;9.16;77.64;101480.78;5053471;28;20041;-80
2021/11/16 07:23:27;;;;;;;8.45;2.80;;;;;;;9.14;77.83;101474.75;5034001;28;20465;-79
2021/11/16 07:25:54;;;;;;;7.05;2.15;;;;;;;9.15;77.76;101472.81;5053058;28;20060;-80
2021/11/16 07:28:21;;;;;;;3.22;2.25;;;;;;;9.15;77.97;101467.28;5035077;28;20456;-80
2021/11/16 07:30:49;;;;;;;5.60;2.38;;;;;;;9.16;77.85;101466.97;5052457;28;20108;-80
2021/11/16 07:33:19;;;;;;;7.20;2.58;;;;;;;9.15;78.15;101464.53;5052111;28;20033;-80
2021/11/16 07:35:46;;;;;;;9.43;2.45;;;;;;;9.15;78.18;101465.34;5053314;28;20143;-79
2021/11/16 07:38:15;;;;;;;4.82;2.42;;;;;;;9.16;78.13;101450.38;5054582;28;20117;-80
2021/11/16 07:40:46;;;;;;;6.53;2.65;;;;;;;9.15;78.42;101465.34;5051497;28;20082;-79
2021/11/16 07:43:17;;;;;;;4.15;2.85;;;;;;;9.15;78.55;101459.81;5036802;28;20045;-79
2021/11/16 07:45:51;;;;;;;4.38;2.92;;;;;;;9.16;78.68;101455.91;5054816;28;20053;-80
2021/11/16 07:48:24;;;;;;;8.27;3.17;;;;;;;9.18;78.52;101456.44;5054327;28;20106;-80
2021/11/16 07:50:55;;;;;;;5.78;3.05;;;;;;;9.18;78.70;101447.31;5036963;28;20049;-79
2021/11/16 07:53:27;;;;;;;7.53;3.60;;;;;;;9.19;78.59;101449.75;5056941;28;20068;-81
2021/11/16 07:55:53;;;;;;;10.80;2.67;;;;;;;9.19;78.70;101438.69;5054523;28;20114;-80
2021/11/16 07:58:24;;;;;;;7.38;2.83;;;;;;;9.18;78.92;101437.09;5048829;28;20088;-80
2021/11/16 08:00:52;;;;;;;6.40;3.30;;;;;;;9.19;78.83;101444.22;5049719;28;20123;-79
2021/11/16 08:03:24;;;;;;;5.18;3.72;;;;;;;9.18;78.95;101431.56;5049345;28;20055;-80
2021/11/16 08:08:38;;;;;;;6.82;2.65;;;;;;;9.19;78.95;101447.00;5050734;28;20033;-80
2021/11/16 08:14:24;;;;;;;10.10;3.08;;;;;;;9.19;79.03;101443.41;4979288;28;20046;-80
2021/11/16 08:16:59;;;;;;;8.52;2.88;;;;;;;9.18;79.09;101452.84;5038418;28;20147;-80
2021/11/16 08:19:28;;;;;;;3.60;2.20;;;;;;;9.16;79.23;101447.63;5051939;28;20060;-80
2021/11/16 08:21:56;;;;;;;6.55;2.95;;;;;;;9.16;79.14;101436.56;5053175;28;20392;-80
2021/11/16 08:24:29;;;;;;;9.30;2.85;;;;;;;9.18;79.18;101437.09;5054435;28;20098;-80
2021/11/16 08:26:58;;;;;;;12.45;3.40;;;;;;;9.21;79.23;101445.88;5031265;28;20491;-79
2021/11/16 08:29:38;;;;;;;9.23;2.83;;;;;;;9.22;79.24;101441.94;5043244;28;20472;-79
2021/11/16 08:32:14;;;;;;;5.07;2.97;;;;;;;9.22;79.15;101436.44;5055596;28;20044;-80
2021/11/16 08:34:47;;;;;;;8.35;3.78;;;;;;;9.22;79.17;101437.25;5051122;28;20480;-79
2021/11/16 08:37:15;;;;;;;7.22;1.90;;;;;;;9.24;79.20;101436.94;5060529;28;20595;-80
2021/11/16 08:39:49;;;;;;;6.38;2.35;;;;;;;9.24;79.36;101436.94;5053099;28;20110;-79
2021/11/16 08:42:21;;;;;;;8.75;3.53;;;;;;;9.25;79.02;101430.25;5056501;28;20486;-80
2021/11/16 08:45:03;;;;;;;6.97;1.73;;;;;;;9.25;78.80;101425.56;5036067;28;20047;-79
2021/11/16 08:47:37;;;;;;;11.02;2.03;;;;;;;9.26;79.00;101418.09;5053707;28;20057;-79
2021/11/16 08:50:12;;;;;;;7.15;1.75;;;;;;;9.27;78.98;101422.47;5049671;28;20308;-83
2021/11/16 08:52:40;;;;;;;2.90;1.60;;;;;;;9.29;78.90;101421.03;5061429;28;20123;-83
2021/11/16 08:55:10;;;;;;;3.58;1.77;;;;;;;9.31;78.74;101423.47;5027162;28;20064;-84
2021/11/16 08:57:42;;;;;;;4.10;1.35;;;;;;;9.33;78.78;101418.44;5050377;28;20848;-85
2021/11/16 09:00:20;;;;;;;6.10;1.33;;;;;;;9.33;78.78;101413.72;5031945;28;20051;-83
2021/11/16 09:02:48;;;;;;;5.63;1.60;;;;;;;9.34;78.79;101406.25;5040527;28;20047;-83
2021/11/16 09:05:17;;;;;;;7.93;2.25;;;;;;;9.32;78.89;101409.31;5049668;28;20053;-82
2021/11/16 09:07:54;;;;;;;8.15;3.00;;;;;;;9.32;78.93;101411.28;5050500;28;20044;-83
2021/11/16 09:10:34;;;;;;;6.30;2.30;;;;;;;9.31;78.91;101413.25;5053432;28;20480;-80
2021/11/16 09:13:04;;;;;;;5.72;2.42;;;;;;;9.32;78.94;101403.78;5054197;28;20122;-81
2021/11/16 09:15:34;;;;;;;5.35;2.92;;;;;;;9.32;79.18;101409.31;5055087;28;20037;-83
2021/11/16 09:18:08;;;;;;;4.65;2.20;;;;;;;9.33;79.05;101410.13;5054098;28;20040;-83
2021/11/16 09:20:35;;;;;;;5.28;2.70;;;;;;;9.34;78.85;101401.53;5042286;28;20060;-82
2021/11/16 09:23:03;;;;;;;6.10;2.00;;;;;;;9.34;78.97;101407.06;5042116;28;20419;-82
2021/11/16 09:25:40;;;;;;;3.75;2.05;;;;;;;9.34;79.11;101401.53;5057386;28;20736;-81
2021/11/16 09:28:34;;;;;;;5.50;2.42;;;;;;;9.34;79.07;101403.50;5052488;28;20099;-82
2021/11/16 09:31:21;;;;;;;3.30;2.13;;;;;;;9.32;79.09;101408.53;5031529;28;20041;-83
2021/11/16 09:33:51;;;;;;;3.95;2.25;;;;;;;9.33;79.07;101404.63;5059659;28;20040;-83
2021/11/16 09:36:25;;;;;;;6.18;1.77;;;;;;;9.33;79.45;101399.09;5043262;28;20032;-83
2021/11/16 09:39:04;;;;;;;5.13;2.33;;;;;;;9.34;79.23;101389.66;5043513;28;20052;-83
2021/11/16 09:41:32;;;;;;;5.55;1.85;;;;;;;9.36;79.12;101384.63;5036340;28;20036;-82
2021/11/16 09:44:24;;;;;;;5.78;1.95;;;;;;;9.33;79.15;101385.28;5035143;28;20064;-82
2021/11/16 09:47:01;;;;;;;7.60;2.50;;;;;;;9.34;79.35;101373.09;5054457;28;20063;-83
2021/11/16 09:49:41;;;;;;;10.05;2.72;;;;;;;9.37;79.30;101375.22;5035997;28;20033;-82
2021/11/16 09:52:18;;;;;;;3.90;2.00;;;;;;;9.39;79.18;101359.13;5055494;28;20053;-82
2021/11/16 09:54:52;;;;;;;5.65;1.65;;;;;;;9.41;79.29;101354.06;5056709;28;20079;-82
2021/11/16 09:57:24;;;;;;;5.43;2.10;;;;;;;9.42;79.40;101359.31;5023832;28;20037;-82
2021/11/16 09:59:59;;;;;;;8.55;1.67;;;;;;;9.45;79.31;101357.84;5063716;28;20036;-82
2021/11/16 10:02:29;;;;;;;6.07;1.63;;;;;;;9.46;79.35;101349.22;5038682;28;20071;-82
2021/11/16 10:05:23;;;;;;;2.95;0.90;;;;;;;9.45;78.95;101357.84;5058143;28;20040;-82
2021/11/16 10:07:54;;;;;;;5.32;1.70;;;;;;;9.45;78.82;101344.81;5045015;28;20083;-82
2021/11/16 10:10:23;;;;;;;2.08;0.82;;;;;;;9.47;78.98;101345.31;5059075;28;20094;-82
2021/11/16 10:12:53;;;;;;;2.72;0.70;;;;;;;9.48;79.00;101346.13;5056552;28;20037;-83
2021/11/16 10:15:24;;;;;;;2.10;0.70;;;;;;;9.49;78.90;101347.75;5064127;28;20395;-82
2021/11/16 10:17:52;;;;;;;5.25;2.22;;;;;;;9.51;78.84;101345.47;5050693;28;20037;-82
2021/11/16 10:20:25;;;;;;;3.33;0.85;;;;;;;9.51;78.72;101345.47;5042324;28;20044;-83
2021/11/16 10:23:28;;;;;;;4.53;1.30;;;;;;;9.51;78.76;101339.94;5053920;28;20098;-83
2021/11/16 10:25:56;;;;;;;5.22;1.00;;;;;;;9.52;78.63;101347.13;5055200;28;20033;-83
2021/11/16 10:28:23;;;;;;;2.90;1.08;;;;;;;9.53;78.71;101349.53;5039824;28;20040;-82
2021/11/16 10:30:51;;;;;;;5.25;1.95;;;;;;;9.54;78.64;101334.59;5064963;28;20492;-82
2021/11/16 10:33:21;;;;;;;5.05;0.98;;;;;;;9.56;78.58;101337.00;5060361;28;20052;-82
2021/11/16 10:35:59;;;;;;;5.13;0.82;;;;;;;9.58;78.76;101351.34;5056761;28;21042;-82
2021/11/16 10:38:34;;;;;;;4.93;1.02;;;;;;;9.60;78.65;101346.31;5035219;28;20424;-82
2021/11/16 10:41:05;;;;;;;2.97;0.70;;;;;;;9.62;78.51;101346.78;5022980;28;20056;-82
2021/11/16 10:43:40;;;;;;;4.32;0.98;;;;;;;9.62;78.44;101346.78;5042590;28;20084;-80
2021/11/16 10:46:08;;;;;;;4.07;1.00;;;;;;;9.64;78.60;101344.50;5041180;28;20061;-80
2021/11/16 10:48:37;;;;;;;6.38;1.20;;;;;;;9.65;78.66;101352.50;5039087;28;20052;-79
2021/11/16 10:51:11;;;;;;;6.43;1.40;;;;;;;9.67;78.58;101341.09;5058009;28;20052;-79
2021/11/16 10:53:38;;;;;;;12.70;1.88;;;;;;;9.71;78.47;101337.38;5057141;28;20041;-79
2021/11/16 10:56:08;;;;;;;4.10;2.13;;;;;;;9.72;78.58;101347.28;5060399;28;20385;-78
2021/11/16 10:58:40;;;;;;;5.95;1.23;;;;;;;9.72;78.67;101325.16;5037778;28;20516;-79
2021/11/16 11:01:11;;;;;;;7.43;1.40;;;;;;;9.75;78.77;101326.47;5056687;28;20079;-79
2021/11/16 11:03:42;;;;;;;4.38;1.33;;;;;;;9.78;78.83;101331.34;5052465;28;20506;-79
2021/11/16 11:06:31;;;;;;;4.67;1.50;;;;;;;9.81;78.90;101325.16;5038627;28;20046;-79
2021/11/16 11:09:02;;;;;;;3.50;1.48;;;;;;;9.88;78.88;101322.72;5024327;28;20144;-79
2021/11/16 11:11:29;;;;;;;5.07;1.55;;;;;;;9.94;78.90;101324.19;5055014;28;20117;-78
2021/11/16 11:14:00;;;;;;;3.95;1.05;;;;;;;9.99;78.83;101301.88;5052968;28;20037;-79
2021/11/16 11:16:28;;;;;;;4.20;1.70;;;;;;;10.04;79.04;101298.94;5059037;28;20110;-79
2021/11/16 11:18:55;;;;;;;6.32;1.25;;;;;;;10.10;78.65;101300.41;5045102;28;20128;-78
2021/11/16 11:21:31;;;;;;;5.20;1.08;;;;;;;10.15;78.60;101294.72;5041752;28;20052;-79
2021/11/16 11:24:06;;;;;;;5.38;2.00;;;;;;;10.22;78.79;101296.97;5055958;28;20116;-79
2021/11/16 11:26:39;;;;;;;2.78;0.93;;;;;;;10.25;78.51;101291.59;5057434;28;20052;-79
2021/11/16 11:29:29;;;;;;;6.90;1.10;;;;;;;10.31;78.56;101295.81;5056668;28;20121;-80
2021/11/16 11:32:26;;;;;;;3.70;1.27;;;;;;;10.40;78.22;101293.03;5037459;28;20046;-79
2021/11/16 11:35:12;;;;;;;3.33;1.17;;;;;;;10.44;78.05;101284.88;5040974;28;20068;-79
2021/11/16 11:37:41;;;;;;;5.20;1.05;;;;;;;10.49;78.08;101279.97;5037704;28;20044;-79
2021/11/16 11:40:11;;;;;;;6.60;0.80;;;;;;;10.52;78.00;101268.22;5040111;28;20064;-79
2021/11/16 11:42:47;;;;;;;3.22;1.27;;;;;;;10.52;77.88;101264.66;5057967;28;20086;-78
2021/11/16 11:45:23;;;;;;;2.90;0.77;;;;;;;10.56;78.12;101255.38;5055177;28;20096;-79
2021/11/16 11:47:54;;;;;;;1.35;0.60;;;;;;;10.54;77.94;101260.41;5058418;28;20065;-79
2021/11/16 11:50:43;;;;;;;5.15;0.73;;;;;;;10.54;77.63;101256.84;5058575;28;20106;-79
2021/11/16 11:53:23;;;;;;;0.57;0.57;;;;;;;10.57;77.76;101250.63;5039678;28;20121;-79
2021/11/16 11:56:05;;;;;;;1.75;0.50;;;;;;;10.57;77.31;101242.31;5038344;28;20143;-78
2021/11/16 11:58:36;;;;;;;1.38;0.85;;;;;;;10.61;77.78;101240.50;5053343;28;20679;-78
2021/11/16 12:01:07;;;;;;;2.67;0.60;;;;;;;10.58;77.77;101247.53;5040971;28;20068;-78
2021/11/16 12:03:39;;;;;;;2.72;0.70;;;;;;;10.58;77.93;101232.88;5039616;28;20393;-78
2021/11/16 12:06:07;;;;;;;1.55;0.52;;;;;;;10.59;77.95;101226.19;5016448;28;20059;-78